createdAt,value
2023-07-23T00:00:43.437Z,216.42
2023-07-23T00:01:43.456Z,216.61
2023-07-23T00:02:43.533Z,214.61
2023-07-23T00:03:43.553Z,216.52
2023-07-23T00:04:43.498Z,210.00
2023-07-23T00:05:43.513Z,212.30
2023-07-23T00:06:43.555Z,210.63
2023-07-23T00:07:43.556Z,215.77
2023-07-23T00:08:43.557Z,211.37
2023-07-23T00:09:43.587Z,213.59
2023-07-23T00:10:43.588Z,211.89
2023-07-23T00:11:43.597Z,212.47
2023-07-23T00:12:43.621Z,210.43
2023-07-23T00:13:43.625Z,214.06
2023-07-23T00:14:43.649Z,210.86
2023-07-23T00:15:43.674Z,213.14
2023-07-23T00:16:43.837Z,211.51
2023-07-23T00:17:43.808Z,209.13
2023-07-23T00:18:43.809Z,210.14
2023-07-23T00:19:43.841Z,210.30
2023-07-23T00:20:43.877Z,210.34
2023-07-23T00:21:43.923Z,210.35
2023-07-23T00:22:43.932Z,207.15
2023-07-23T00:23:43.987Z,209.33
2023-07-23T00:24:44.069Z,206.94
2023-07-23T00:25:44.019Z,209.00
2023-07-23T00:26:44.074Z,207.62
2023-07-23T00:27:44.103Z,206.10
2023-07-23T00:28:44.099Z,205.04
2023-07-23T00:29:44.125Z,203.32
2023-07-23T00:30:44.151Z,205.11
2023-07-23T00:31:44.193Z,205.67
2023-07-23T00:32:44.208Z,206.46
2023-07-23T00:33:44.200Z,203.91
2023-07-23T00:34:44.201Z,202.56
2023-07-23T00:35:44.217Z,203.98
2023-07-23T00:36:44.238Z,205.08
2023-07-23T00:37:44.237Z,205.38
2023-07-23T00:38:44.278Z,203.05
2023-07-23T00:39:44.268Z,202.57
2023-07-23T00:40:44.308Z,204.30
2023-07-23T00:41:44.344Z,203.79
2023-07-23T00:42:44.394Z,202.25
2023-07-23T00:43:44.448Z,205.04
2023-07-23T00:44:44.504Z,202.21
2023-07-23T00:45:44.568Z,201.00
2023-07-23T00:46:44.606Z,202.16
2023-07-23T00:47:44.658Z,202.22
2023-07-23T00:48:44.694Z,200.31
2023-07-23T00:49:44.744Z,200.32
2023-07-23T00:50:44.819Z,199.17
2023-07-23T00:51:44.877Z,200.73
2023-07-23T00:52:44.907Z,198.23
2023-07-23T00:53:44.966Z,200.16
2023-07-23T00:54:45.023Z,199.97
2023-07-23T00:55:45.058Z,200.08
2023-07-23T00:56:45.119Z,200.25
2023-07-23T00:57:45.178Z,200.84
2023-07-23T00:58:45.227Z,200.41
2023-07-23T00:59:45.273Z,197.62
2023-07-23T01:00:45.334Z,198.22
2023-07-23T01:01:45.392Z,199.57
2023-07-23T01:02:45.453Z,195.91
2023-07-23T01:03:45.488Z,196.61
2023-07-23T01:04:45.540Z,197.22
2023-07-23T01:05:45.627Z,194.26
2023-07-23T01:06:45.642Z,195.64
2023-07-23T01:07:45.690Z,194.92
2023-07-23T01:08:45.751Z,196.48
2023-07-23T01:09:45.796Z,192.34
2023-07-23T01:10:45.859Z,194.42
2023-07-23T01:11:45.909Z,194.81
2023-07-23T01:12:45.967Z,195.06
2023-07-23T01:13:46.000Z,194.87
2023-07-23T01:14:46.055Z,194.79
2023-07-23T01:15:46.109Z,192.82
2023-07-23T01:16:46.148Z,193.69
2023-07-23T01:17:46.256Z,194.47
2023-07-23T01:18:46.356Z,193.53
2023-07-23T01:19:46.309Z,194.86
2023-07-23T01:20:46.371Z,194.88
2023-07-23T01:21:46.399Z,193.98
2023-07-23T01:22:46.454Z,191.03
2023-07-23T01:23:46.499Z,191.86
2023-07-23T01:24:46.599Z,191.62
2023-07-23T01:25:46.629Z,191.59
2023-07-23T01:26:46.645Z,191.34
2023-07-23T01:27:46.701Z,191.81
2023-07-23T01:28:46.744Z,190.64
2023-07-23T01:29:46.809Z,188.07
2023-07-23T01:30:46.904Z,190.89
2023-07-23T01:31:46.913Z,189.82
2023-07-23T01:32:46.982Z,190.12
2023-07-23T01:33:47.019Z,191.30
2023-07-23T01:34:47.093Z,188.99
2023-07-23T01:35:47.127Z,190.15
2023-07-23T01:36:47.199Z,187.75
2023-07-23T01:37:47.240Z,188.80
2023-07-23T01:38:47.301Z,189.10
2023-07-23T01:39:47.359Z,188.08
2023-07-23T01:40:47.408Z,187.49
2023-07-23T01:41:47.474Z,187.43
2023-07-23T01:42:47.527Z,186.98
2023-07-23T01:43:47.592Z,187.70
2023-07-23T01:44:47.645Z,189.26
2023-07-23T01:45:47.708Z,187.10
2023-07-23T01:46:47.838Z,185.10
2023-07-23T01:47:47.847Z,186.47
2023-07-23T01:48:47.875Z,184.70
2023-07-23T01:49:47.941Z,183.01
2023-07-23T01:50:47.972Z,182.97
2023-07-23T01:51:48.050Z,184.87
2023-07-23T01:52:48.090Z,182.75
2023-07-23T01:53:48.144Z,183.38
2023-07-23T01:54:48.199Z,183.82
2023-07-23T01:55:48.253Z,184.34
2023-07-23T01:56:48.319Z,181.46
2023-07-23T01:57:48.364Z,181.57
2023-07-23T01:58:48.430Z,182.78
2023-07-23T01:59:48.490Z,180.19
2023-07-23T02:00:48.623Z,183.43
2023-07-23T02:01:48.638Z,181.56
2023-07-23T02:02:48.759Z,182.37
2023-07-23T02:03:48.738Z,181.30
2023-07-23T02:04:48.803Z,179.38
2023-07-23T02:05:48.850Z,180.39
2023-07-23T02:06:48.914Z,180.99
2023-07-23T02:07:48.953Z,180.80
2023-07-23T02:08:49.015Z,180.71
2023-07-23T02:09:49.085Z,181.26
2023-07-23T02:10:49.136Z,179.80
2023-07-23T02:11:49.214Z,178.73
2023-07-23T02:12:49.284Z,177.59
2023-07-23T02:13:49.315Z,179.23
2023-07-23T02:14:49.396Z,179.41
2023-07-23T02:15:49.444Z,182.22
2023-07-23T02:16:49.514Z,180.39
2023-07-23T02:17:49.590Z,181.48
2023-07-23T02:18:49.641Z,179.87
2023-07-23T02:19:49.691Z,176.91
2023-07-23T02:20:49.734Z,178.51
2023-07-23T02:21:49.802Z,177.85
2023-07-23T02:22:49.880Z,175.71
2023-07-23T02:23:49.905Z,173.23
2023-07-23T02:24:50.020Z,174.19
2023-07-23T02:25:50.045Z,177.10
2023-07-23T02:26:50.112Z,176.68
2023-07-23T02:27:50.167Z,176.18
2023-07-23T02:28:50.225Z,176.20
2023-07-23T02:29:50.308Z,176.86
2023-07-23T02:30:50.386Z,175.13
2023-07-23T02:31:50.417Z,174.97
2023-07-23T02:32:50.494Z,176.82
2023-07-23T02:33:50.536Z,174.76
2023-07-23T02:34:50.597Z,175.20
2023-07-23T02:35:50.664Z,175.37
2023-07-23T02:36:50.733Z,173.73
2023-07-23T02:37:50.776Z,172.32
2023-07-23T02:38:50.840Z,172.83
2023-07-23T02:39:50.924Z,173.99
2023-07-23T02:40:50.975Z,173.79
2023-07-23T02:41:51.026Z,174.41
2023-07-23T02:42:51.125Z,173.67
2023-07-23T02:43:51.151Z,172.45
2023-07-23T02:44:51.224Z,170.22
2023-07-23T02:45:51.325Z,169.37
2023-07-23T02:46:51.361Z,171.69
2023-07-23T02:47:51.464Z,171.73
2023-07-23T02:48:51.512Z,172.96
2023-07-23T02:49:51.566Z,169.80
2023-07-23T02:50:51.633Z,169.54
2023-07-23T02:51:51.706Z,169.92
2023-07-23T02:52:51.772Z,168.68
2023-07-23T02:53:51.847Z,171.87
2023-07-23T02:54:51.901Z,170.74
2023-07-23T02:55:51.986Z,168.00
2023-07-23T02:56:52.064Z,170.37
2023-07-23T02:57:52.129Z,171.14
2023-07-23T02:58:52.170Z,168.20
2023-07-23T02:59:52.230Z,168.52
2023-07-23T03:00:52.306Z,167.01
2023-07-23T03:01:52.375Z,165.50
2023-07-23T03:02:52.488Z,167.76
2023-07-23T03:03:52.519Z,165.73
2023-07-23T03:04:52.566Z,165.76
2023-07-23T03:05:52.641Z,165.91
2023-07-23T03:06:52.703Z,166.05
2023-07-23T03:07:52.774Z,164.67
2023-07-23T03:08:52.838Z,165.18
2023-07-23T03:09:52.916Z,164.82
2023-07-23T03:10:52.989Z,164.64
2023-07-23T03:11:53.048Z,164.73
2023-07-23T03:12:53.113Z,164.04
2023-07-23T03:13:53.177Z,165.22
2023-07-23T03:14:53.243Z,160.74
2023-07-23T03:15:53.335Z,161.89
2023-07-23T03:16:53.395Z,160.51
2023-07-23T03:17:53.465Z,160.74
2023-07-23T03:18:53.543Z,165.55
2023-07-23T03:19:53.599Z,161.83
2023-07-23T03:20:53.670Z,164.92
2023-07-23T03:21:53.731Z,164.25
2023-07-23T03:22:53.815Z,164.13
2023-07-23T03:23:53.870Z,161.95
2023-07-23T03:24:53.969Z,160.93
2023-07-23T03:25:54.014Z,163.81
2023-07-23T03:26:54.082Z,161.99
2023-07-23T03:27:54.151Z,160.25
2023-07-23T03:28:54.212Z,161.06
2023-07-23T03:29:54.294Z,159.01
2023-07-23T03:30:54.384Z,160.07
2023-07-23T03:31:54.441Z,159.95
2023-07-23T03:32:54.504Z,158.85
2023-07-23T03:33:54.570Z,159.59
2023-07-23T03:34:54.622Z,159.24
2023-07-23T03:35:54.695Z,160.41
2023-07-23T03:36:54.752Z,158.68
2023-07-23T03:37:54.823Z,157.15
2023-07-23T03:38:54.889Z,157.80
2023-07-23T03:39:54.958Z,156.97
2023-07-23T03:40:55.030Z,154.70
2023-07-23T03:41:55.112Z,156.79
2023-07-23T03:42:55.180Z,156.47
2023-07-23T03:43:55.249Z,155.07
2023-07-23T03:44:55.320Z,157.03
2023-07-23T03:45:55.415Z,158.01
2023-07-23T03:46:55.444Z,153.54
2023-07-23T03:47:55.510Z,156.81
2023-07-23T03:48:55.575Z,156.73
2023-07-23T03:49:55.630Z,156.64
2023-07-23T03:50:55.703Z,152.53
2023-07-23T03:51:55.772Z,153.75
2023-07-23T03:52:55.842Z,154.71
2023-07-23T03:53:55.918Z,153.20
2023-07-23T03:54:55.986Z,154.03
2023-07-23T03:55:56.053Z,152.03
2023-07-23T03:56:56.126Z,152.10
2023-07-23T03:57:56.193Z,152.84
2023-07-23T03:58:56.260Z,153.87
2023-07-23T03:59:56.327Z,151.46
2023-07-23T04:00:56.397Z,152.91
2023-07-23T04:01:56.475Z,152.93
2023-07-23T04:02:56.548Z,154.81
2023-07-23T04:03:56.631Z,150.23
2023-07-23T04:04:56.666Z,152.53
2023-07-23T04:05:56.741Z,150.62
2023-07-23T04:06:56.798Z,149.84
2023-07-23T04:07:56.861Z,151.67
2023-07-23T04:08:56.924Z,149.15
2023-07-23T04:09:56.996Z,149.48
2023-07-23T04:10:57.070Z,148.16
2023-07-23T04:11:57.134Z,147.28
2023-07-23T04:12:57.197Z,147.59
2023-07-23T04:13:57.271Z,148.33
2023-07-23T04:14:57.324Z,149.34
2023-07-23T04:15:57.454Z,149.29
2023-07-23T04:16:57.467Z,150.59
2023-07-23T04:17:57.549Z,148.85
2023-07-23T04:18:57.563Z,148.93
2023-07-23T04:19:57.565Z,149.13
2023-07-23T04:20:57.581Z,150.20
2023-07-23T04:21:57.703Z,149.90
2023-07-23T04:22:57.596Z,150.64
2023-07-23T04:23:57.615Z,150.49
2023-07-23T04:24:57.653Z,151.05
2023-07-23T04:25:57.636Z,148.13
2023-07-23T04:26:57.658Z,147.55
2023-07-23T04:27:57.662Z,150.15
2023-07-23T04:28:57.670Z,150.28
2023-07-23T04:29:57.751Z,147.38
2023-07-23T04:30:57.836Z,148.54
2023-07-23T04:31:57.943Z,144.08
2023-07-23T04:32:57.973Z,149.43
2023-07-23T04:33:58.023Z,147.90
2023-07-23T04:34:58.101Z,147.14
2023-07-23T04:35:58.168Z,148.27
2023-07-23T04:36:58.224Z,143.77
2023-07-23T04:37:58.306Z,145.57
2023-07-23T04:38:58.380Z,147.33
2023-07-23T04:39:58.443Z,147.46
2023-07-23T04:40:58.505Z,144.53
2023-07-23T04:41:58.570Z,146.85
2023-07-23T04:42:58.651Z,145.01
2023-07-23T04:43:58.750Z,148.44
2023-07-23T04:44:58.769Z,147.85
2023-07-23T04:45:58.890Z,148.24
2023-07-23T04:46:58.919Z,145.89
2023-07-23T04:47:58.976Z,147.24
2023-07-23T04:48:59.036Z,143.44
2023-07-23T04:49:59.122Z,143.95
2023-07-23T04:50:59.189Z,145.55
2023-07-23T04:51:59.251Z,143.63
2023-07-23T04:52:59.317Z,142.05
2023-07-23T04:53:59.374Z,141.11
2023-07-23T04:54:59.444Z,142.47
2023-07-23T04:55:59.519Z,139.42
2023-07-23T04:56:59.593Z,142.34
2023-07-23T04:57:59.652Z,140.05
2023-07-23T04:58:59.723Z,142.97
2023-07-23T04:59:59.796Z,141.52
2023-07-23T05:01:00.002Z,144.46
2023-07-23T05:01:59.933Z,141.23
2023-07-23T05:03:00.037Z,142.46
2023-07-23T05:04:00.100Z,144.09
2023-07-23T05:05:00.133Z,143.06
2023-07-23T05:06:00.214Z,140.04
2023-07-23T05:07:00.248Z,139.07
2023-07-23T05:08:01.903Z,143.53
2023-07-23T05:09:00.343Z,143.60
2023-07-23T05:10:00.340Z,143.57
2023-07-23T05:11:00.364Z,142.66
2023-07-23T05:12:00.404Z,140.32
2023-07-23T05:13:00.382Z,140.71
2023-07-23T05:14:00.405Z,139.08
2023-07-23T05:15:00.419Z,139.87
2023-07-23T05:16:00.528Z,139.67
2023-07-23T05:17:00.448Z,139.31
2023-07-23T05:18:00.481Z,138.19
2023-07-23T05:19:00.475Z,138.61
2023-07-23T05:20:00.517Z,138.57
2023-07-23T05:21:00.759Z,139.92
2023-07-23T05:22:00.662Z,139.69
2023-07-23T05:23:00.712Z,141.61
2023-07-23T05:24:00.773Z,142.70
2023-07-23T05:25:00.838Z,141.34
2023-07-23T05:26:00.904Z,141.32
2023-07-23T05:27:00.978Z,144.16
2023-07-23T05:28:01.081Z,145.59
2023-07-23T05:29:01.149Z,140.76
2023-07-23T05:30:01.174Z,140.70
2023-07-23T05:31:01.325Z,142.17
2023-07-23T05:32:01.310Z,143.41
2023-07-23T05:33:01.407Z,142.75
2023-07-23T05:34:01.478Z,143.38
2023-07-23T05:35:01.540Z,138.84
2023-07-23T05:36:01.558Z,141.44
2023-07-23T05:37:01.633Z,139.94
2023-07-23T05:38:01.695Z,138.64
2023-07-23T05:39:01.767Z,141.99
2023-07-23T05:40:01.840Z,138.29
2023-07-23T05:41:01.896Z,134.89
2023-07-23T05:42:01.971Z,137.37
2023-07-23T05:43:02.028Z,137.04
2023-07-23T05:44:02.103Z,138.73
2023-07-23T05:45:02.208Z,139.53
2023-07-23T05:46:02.220Z,137.78
2023-07-23T05:47:02.333Z,140.84
2023-07-23T05:48:02.394Z,141.44
2023-07-23T05:49:02.427Z,137.15
2023-07-23T05:50:02.495Z,137.46
2023-07-23T05:51:02.548Z,139.49
2023-07-23T05:52:02.641Z,137.05
2023-07-23T05:53:02.703Z,139.04
2023-07-23T05:54:02.751Z,140.82
2023-07-23T05:55:02.808Z,139.17
2023-07-23T05:56:02.885Z,140.88
2023-07-23T05:57:02.978Z,140.75
2023-07-23T05:58:03.025Z,140.71
2023-07-23T05:59:03.108Z,142.29
2023-07-23T06:00:03.155Z,139.80
2023-07-23T06:01:03.257Z,139.65
2023-07-23T06:02:03.301Z,138.68
2023-07-23T06:03:03.381Z,137.47
2023-07-23T06:04:03.439Z,140.58
2023-07-23T06:05:04.625Z,140.33
2023-07-23T06:06:03.514Z,140.72
2023-07-23T06:07:03.520Z,141.19
2023-07-23T06:08:03.533Z,144.03
2023-07-23T06:09:03.539Z,142.57
2023-07-23T06:10:03.551Z,138.00
2023-07-23T06:11:03.559Z,138.05
2023-07-23T06:12:03.569Z,138.16
2023-07-23T06:13:03.595Z,137.36
2023-07-23T06:14:03.654Z,137.81
2023-07-23T06:15:03.615Z,141.33
2023-07-23T06:16:03.626Z,138.10
2023-07-23T06:17:03.694Z,138.36
2023-07-23T06:18:03.686Z,138.88
2023-07-23T06:19:03.677Z,138.38
2023-07-23T06:20:03.692Z,139.42
2023-07-23T06:21:03.695Z,139.63
2023-07-23T06:22:03.722Z,138.75
2023-07-23T06:23:03.721Z,139.27
2023-07-23T06:24:03.767Z,140.57
2023-07-23T06:25:03.781Z,139.69
2023-07-23T06:26:03.770Z,136.99
2023-07-23T06:27:03.789Z,133.72
2023-07-23T06:28:03.838Z,133.85
2023-07-23T06:29:03.833Z,137.82
2023-07-23T06:30:03.889Z,136.74
2023-07-23T06:31:03.967Z,139.91
2023-07-23T06:32:04.024Z,139.22
2023-07-23T06:33:04.149Z,137.09
2023-07-23T06:34:04.162Z,138.00
2023-07-23T06:35:06.103Z,134.55
2023-07-23T06:36:04.252Z,134.40
2023-07-23T06:37:04.319Z,132.75
2023-07-23T06:38:04.382Z,131.66
2023-07-23T06:39:04.442Z,133.73
2023-07-23T06:40:04.485Z,127.97
2023-07-23T06:41:04.540Z,129.56
2023-07-23T06:42:04.610Z,125.15
2023-07-23T06:43:04.659Z,121.61
2023-07-23T06:44:04.735Z,122.84
2023-07-23T06:45:04.780Z,122.40
2023-07-23T06:46:04.842Z,121.22
2023-07-23T06:47:04.894Z,126.09
2023-07-23T06:48:05.000Z,124.88
2023-07-23T06:49:04.990Z,129.91
2023-07-23T06:50:05.026Z,131.35
2023-07-23T06:51:05.085Z,130.37
2023-07-23T06:52:05.137Z,126.99
2023-07-23T06:53:05.199Z,125.21
2023-07-23T06:54:05.253Z,119.38
2023-07-23T06:55:05.309Z,117.72
2023-07-23T06:56:05.360Z,119.46
2023-07-23T06:57:05.415Z,116.20
2023-07-23T06:58:05.458Z,114.56
2023-07-23T06:59:05.500Z,118.36
2023-07-23T07:00:05.563Z,114.23
2023-07-23T07:01:05.599Z,120.27
2023-07-23T07:02:05.727Z,121.28
2023-07-23T07:03:05.754Z,120.39
2023-07-23T07:04:05.746Z,114.79
2023-07-23T07:05:05.797Z,115.76
2023-07-23T07:06:05.849Z,117.73
2023-07-23T07:07:05.882Z,111.79
2023-07-23T07:08:05.930Z,118.29
2023-07-23T07:09:05.992Z,112.45
2023-07-23T07:10:06.006Z,116.09
2023-07-23T07:11:06.047Z,115.64
2023-07-23T07:12:06.115Z,111.56
2023-07-23T07:13:06.153Z,107.54
2023-07-23T07:14:06.192Z,111.03
2023-07-23T07:15:06.264Z,108.39
2023-07-23T07:16:06.336Z,99.66
2023-07-23T07:17:06.699Z,97.52
2023-07-23T07:18:06.366Z,103.48
2023-07-23T07:19:06.436Z,102.35
2023-07-23T07:20:06.448Z,103.82
2023-07-23T07:21:06.529Z,89.99
2023-07-23T07:22:06.612Z,83.67
2023-07-23T07:23:06.575Z,77.89
2023-07-23T07:24:06.620Z,80.58
2023-07-23T07:25:06.664Z,73.59
2023-07-23T07:26:06.707Z,71.59
2023-07-23T07:27:06.768Z,68.57
2023-07-23T07:28:06.800Z,74.36
2023-07-23T07:29:06.832Z,69.53
2023-07-23T07:30:06.843Z,68.10
2023-07-23T07:31:06.833Z,69.89
2023-07-23T07:32:06.839Z,71.15
2023-07-23T07:33:06.847Z,70.57
2023-07-23T07:34:06.870Z,65.04
2023-07-23T07:35:06.876Z,72.13
2023-07-23T07:36:06.886Z,74.76
2023-07-23T07:37:06.878Z,77.11
2023-07-23T07:38:06.881Z,78.92
2023-07-23T07:39:06.878Z,82.77
2023-07-23T07:40:06.904Z,81.40
2023-07-23T07:41:06.891Z,82.40
2023-07-23T07:42:06.895Z,83.89
2023-07-23T07:43:06.921Z,82.95
2023-07-23T07:44:06.917Z,83.02
2023-07-23T07:45:06.934Z,82.20
2023-07-23T07:46:07.026Z,82.11
2023-07-23T07:47:06.949Z,76.35
2023-07-23T07:48:06.948Z,79.57
2023-07-23T07:49:06.973Z,79.87
2023-07-23T07:50:06.967Z,77.14
2023-07-23T07:51:07.057Z,80.60
2023-07-23T07:52:07.023Z,79.67
2023-07-23T07:53:07.050Z,79.19
2023-07-23T07:54:07.078Z,76.20
2023-07-23T07:55:07.133Z,76.26
2023-07-23T07:56:07.143Z,73.05
2023-07-23T07:57:07.164Z,74.35
2023-07-23T07:58:07.196Z,72.02
2023-07-23T07:59:07.222Z,68.41
2023-07-23T08:00:07.233Z,68.07
2023-07-23T08:01:07.258Z,67.63
2023-07-23T08:02:07.287Z,67.08
2023-07-23T08:03:07.378Z,68.24
2023-07-23T08:04:07.453Z,68.26
2023-07-23T08:05:07.512Z,67.55
2023-07-23T08:06:07.384Z,69.52
2023-07-23T08:07:07.367Z,67.84
2023-07-23T08:08:07.404Z,61.08
2023-07-23T08:09:07.422Z,64.08
2023-07-23T08:10:07.448Z,66.95
2023-07-23T08:11:07.459Z,67.58
2023-07-23T08:12:07.462Z,69.71
2023-07-23T08:13:07.496Z,66.78
2023-07-23T08:14:07.500Z,68.61
2023-07-23T08:15:07.531Z,68.04
2023-07-23T08:16:07.555Z,69.68
2023-07-23T08:17:07.538Z,68.17
2023-07-23T08:18:07.579Z,68.84
2023-07-23T08:19:07.667Z,68.62
2023-07-23T08:20:07.616Z,64.22
2023-07-23T08:21:07.608Z,67.70
2023-07-23T08:22:07.617Z,66.18
2023-07-23T08:23:07.648Z,70.13
2023-07-23T08:24:07.641Z,66.74
2023-07-23T08:25:07.683Z,65.48
2023-07-23T08:26:07.679Z,65.97
2023-07-23T08:27:07.689Z,66.34
2023-07-23T08:28:07.711Z,65.96
2023-07-23T08:29:07.730Z,66.12
2023-07-23T08:30:07.740Z,65.14
2023-07-23T08:31:07.782Z,65.42
2023-07-23T08:32:07.768Z,64.04
2023-07-23T08:33:07.840Z,65.48
2023-07-23T08:34:07.826Z,62.64
2023-07-23T08:35:07.784Z,62.12
2023-07-23T08:36:07.804Z,58.94
2023-07-23T08:37:07.812Z,57.60
2023-07-23T08:38:07.842Z,58.01
2023-07-23T08:39:07.847Z,60.49
2023-07-23T08:40:07.854Z,55.11
2023-07-23T08:41:07.859Z,56.82
2023-07-23T08:42:07.937Z,54.90
2023-07-23T08:43:07.884Z,55.58
2023-07-23T08:44:07.888Z,56.18
2023-07-23T08:45:07.889Z,51.36
2023-07-23T08:46:07.960Z,48.30
2023-07-23T08:47:07.933Z,40.53
2023-07-23T08:48:07.930Z,43.65
2023-07-23T08:49:07.962Z,40.59
2023-07-23T08:50:07.978Z,43.36
2023-07-23T08:51:08.002Z,40.19
2023-07-23T08:52:08.035Z,36.02
2023-07-23T08:53:08.067Z,34.76
2023-07-23T08:54:08.081Z,36.86
2023-07-23T08:55:08.108Z,34.20
2023-07-23T08:56:08.143Z,31.83
2023-07-23T08:57:08.156Z,30.36
2023-07-23T08:58:08.172Z,26.18
2023-07-23T08:59:08.150Z,20.73
2023-07-23T09:00:08.166Z,21.49
2023-07-23T09:01:08.204Z,18.92
2023-07-23T09:02:08.182Z,28.90
2023-07-23T09:03:08.187Z,27.33
2023-07-23T09:04:08.172Z,28.62
2023-07-23T09:05:08.205Z,24.93
2023-07-23T09:06:08.162Z,25.20
2023-07-23T09:07:08.225Z,29.63
2023-07-23T09:08:08.319Z,25.64
2023-07-23T09:09:08.333Z,25.00
2023-07-23T09:10:08.399Z,25.98
2023-07-23T09:11:08.473Z,25.00
2023-07-23T09:12:08.540Z,26.95
2023-07-23T09:13:08.612Z,25.95
2023-07-23T09:14:08.731Z,25.45
2023-07-23T09:15:08.744Z,26.88
2023-07-23T09:16:08.808Z,26.67
2023-07-23T09:17:08.887Z,27.06
2023-07-23T09:18:08.928Z,26.51
2023-07-23T09:19:08.998Z,26.78
2023-07-23T09:20:09.064Z,26.59
2023-07-23T09:21:09.138Z,25.40
2023-07-23T09:22:09.196Z,25.00
2023-07-23T09:23:09.267Z,25.54
2023-07-23T09:24:09.426Z,22.72
2023-07-23T09:25:09.418Z,26.31
2023-07-23T09:26:09.507Z,27.31
2023-07-23T09:27:09.577Z,24.77
2023-07-23T09:28:09.641Z,25.90
2023-07-23T09:29:09.698Z,27.14
2023-07-23T09:30:09.767Z,25.75
2023-07-23T09:31:09.851Z,27.81
2023-07-23T09:32:09.919Z,25.50
2023-07-23T09:33:09.982Z,26.12
2023-07-23T09:34:10.047Z,27.85
2023-07-23T09:35:10.114Z,25.36
2023-07-23T09:36:10.190Z,27.07
2023-07-23T09:37:10.256Z,25.65
2023-07-23T09:38:10.322Z,25.00
2023-07-23T09:39:10.399Z,26.41
2023-07-23T09:40:10.470Z,25.07
2023-07-23T09:41:10.532Z,26.93
2023-07-23T09:42:10.605Z,25.91
2023-07-23T09:43:10.673Z,25.08
2023-07-23T09:44:10.763Z,27.38
2023-07-23T09:45:10.832Z,26.08
2023-07-23T09:46:10.851Z,26.43
2023-07-23T09:47:10.933Z,25.00
2023-07-23T09:48:17.188Z,27.13
2023-07-23T09:49:12.005Z,27.19
2023-07-23T09:50:11.022Z,27.46
2023-07-23T09:51:10.997Z,27.80
2023-07-23T09:52:11.022Z,28.09
2023-07-23T09:53:11.014Z,24.84
2023-07-23T09:54:11.000Z,26.26
2023-07-23T09:55:11.007Z,25.87
2023-07-23T09:56:11.005Z,26.99
2023-07-23T09:57:11.007Z,25.78
2023-07-23T09:58:11.076Z,28.60
2023-07-23T09:59:11.151Z,28.39
2023-07-23T10:00:11.200Z,27.76
2023-07-23T10:01:11.303Z,26.33
2023-07-23T10:02:11.303Z,28.56
2023-07-23T10:03:11.389Z,28.92
2023-07-23T10:04:11.413Z,28.07
2023-07-23T10:05:11.485Z,28.37
2023-07-23T10:06:11.539Z,29.31
2023-07-23T10:07:11.606Z,29.55
2023-07-23T10:08:11.635Z,25.52
2023-07-23T10:09:11.650Z,25.65
2023-07-23T10:10:11.622Z,25.70
2023-07-23T10:11:11.602Z,24.19
2023-07-23T10:12:11.608Z,25.98
2023-07-23T10:13:11.600Z,28.06
2023-07-23T10:14:11.606Z,27.38
2023-07-23T10:15:11.611Z,27.39
2023-07-23T10:16:11.628Z,25.38
2023-07-23T10:17:11.608Z,26.06
2023-07-23T10:18:11.616Z,27.58
2023-07-23T10:19:11.691Z,29.02
2023-07-23T10:20:12.163Z,30.74
2023-07-23T10:21:11.779Z,31.79
2023-07-23T10:22:11.810Z,34.78
2023-07-23T10:23:11.867Z,31.82
2023-07-23T10:24:11.949Z,33.90
2023-07-23T10:25:25.117Z,37.07
2023-07-23T10:26:12.952Z,37.09
2023-07-23T10:27:11.975Z,36.97
2023-07-23T10:28:11.964Z,38.67
2023-07-23T10:29:11.984Z,38.38
2023-07-23T10:30:11.941Z,41.10
2023-07-23T10:31:12.020Z,42.48
2023-07-23T10:32:11.937Z,43.22
2023-07-23T10:33:12.376Z,45.71
2023-07-23T10:34:11.924Z,49.58
2023-07-23T10:35:11.930Z,45.15
2023-07-23T10:36:11.935Z,41.98
2023-07-23T10:37:12.009Z,44.21
2023-07-23T10:38:12.021Z,44.39
2023-07-23T10:39:12.057Z,47.04
2023-07-23T10:40:12.095Z,42.84
2023-07-23T10:41:12.147Z,45.59
2023-07-23T10:42:12.178Z,47.52
2023-07-23T10:43:12.290Z,46.46
2023-07-23T10:44:12.269Z,44.33
2023-07-23T10:45:12.323Z,41.43
2023-07-23T10:46:12.364Z,40.19
2023-07-23T10:47:12.365Z,43.60
2023-07-23T10:48:12.395Z,42.12
2023-07-23T10:49:12.445Z,41.60
2023-07-23T10:50:12.478Z,39.48
2023-07-23T10:51:12.511Z,40.74
2023-07-23T10:52:12.540Z,43.07
2023-07-23T10:53:12.592Z,45.10
2023-07-23T10:54:12.596Z,42.33
2023-07-23T10:55:13.644Z,42.02
2023-07-23T10:56:12.673Z,42.29
2023-07-23T10:57:12.702Z,42.25
2023-07-23T10:58:12.944Z,45.19
2023-07-23T10:59:12.808Z,43.56
2023-07-23T11:00:12.816Z,43.93
2023-07-23T11:01:12.842Z,42.59
2023-07-23T11:02:12.884Z,43.79
2023-07-23T11:03:12.991Z,41.49
2023-07-23T11:04:12.945Z,39.77
2023-07-23T11:05:12.969Z,42.79
2023-07-23T11:06:12.987Z,42.90
2023-07-23T11:07:13.021Z,41.11
2023-07-23T11:08:13.042Z,40.09
2023-07-23T11:09:13.080Z,41.69
2023-07-23T11:10:13.108Z,40.66
2023-07-23T11:11:13.129Z,39.69
2023-07-23T11:12:13.163Z,40.11
2023-07-23T11:13:13.185Z,37.19
2023-07-23T11:14:13.218Z,34.08
2023-07-23T11:15:13.264Z,32.87
2023-07-23T11:16:13.312Z,33.24
2023-07-23T11:17:13.313Z,34.67
2023-07-23T11:18:13.447Z,35.54
2023-07-23T11:19:13.371Z,35.48
2023-07-23T11:20:13.415Z,32.88
2023-07-23T11:21:13.418Z,33.19
2023-07-23T11:22:13.469Z,30.42
2023-07-23T11:23:13.518Z,30.37
2023-07-23T11:24:13.538Z,30.30
2023-07-23T11:25:13.554Z,34.27
2023-07-23T11:26:13.563Z,36.64
2023-07-23T11:27:13.644Z,34.23
2023-07-23T11:28:13.605Z,34.72
2023-07-23T11:29:13.640Z,36.39
2023-07-23T11:30:13.714Z,35.61
2023-07-23T11:31:13.709Z,34.84
2023-07-23T11:32:13.719Z,35.60
2023-07-23T11:33:13.804Z,37.95
2023-07-23T11:34:13.757Z,40.23
2023-07-23T11:35:13.770Z,37.11
2023-07-23T11:36:13.787Z,36.86
2023-07-23T11:37:13.801Z,33.25
2023-07-23T11:38:13.830Z,33.60
2023-07-23T11:39:13.832Z,34.56
2023-07-23T11:40:13.873Z,29.20
2023-07-23T11:41:14.842Z,25.00
2023-07-23T11:42:13.916Z,27.56
2023-07-23T11:43:13.920Z,29.16
2023-07-23T11:44:13.937Z,27.60
2023-07-23T11:45:13.977Z,26.29
2023-07-23T11:46:13.991Z,30.41
2023-07-23T11:47:13.995Z,31.21
2023-07-23T11:48:14.012Z,32.11
2023-07-23T11:49:14.025Z,33.75
2023-07-23T11:50:14.053Z,32.35
2023-07-23T11:51:14.064Z,33.69
2023-07-23T11:52:14.102Z,34.72
2023-07-23T11:53:16.060Z,34.09
2023-07-23T11:54:14.136Z,35.91
2023-07-23T11:55:14.069Z,33.60
2023-07-23T11:56:14.066Z,33.89
2023-07-23T11:57:14.049Z,33.67
2023-07-23T11:58:14.039Z,33.03
2023-07-23T11:59:16.834Z,29.83
2023-07-23T12:00:14.056Z,30.00
2023-07-23T12:01:14.058Z,30.44
2023-07-23T12:02:14.012Z,31.59
2023-07-23T12:03:14.108Z,32.68
2023-07-23T12:04:13.979Z,34.81
2023-07-23T12:05:14.011Z,37.90
2023-07-23T12:06:13.963Z,36.77
2023-07-23T12:07:13.962Z,33.77
2023-07-23T12:08:13.962Z,35.92
2023-07-23T12:09:13.944Z,39.22
2023-07-23T12:10:13.920Z,38.78
2023-07-23T12:11:13.893Z,32.54
2023-07-23T12:12:13.927Z,36.64
2023-07-23T12:13:13.899Z,36.84
2023-07-23T12:14:13.892Z,41.39
2023-07-23T12:15:13.857Z,40.58
2023-07-23T12:16:13.899Z,39.81
2023-07-23T12:17:13.826Z,42.16
2023-07-23T12:18:13.831Z,43.09
2023-07-23T12:19:13.818Z,41.46
2023-07-23T12:20:13.837Z,42.61
2023-07-23T12:21:13.797Z,39.54
2023-07-23T12:22:13.797Z,40.50
2023-07-23T12:23:13.803Z,40.02
2023-07-23T12:24:13.802Z,39.95
2023-07-23T12:25:13.773Z,39.05
2023-07-23T12:26:13.776Z,38.97
2023-07-23T12:27:13.777Z,41.96
2023-07-23T12:28:13.741Z,41.98
2023-07-23T12:29:13.751Z,41.15
2023-07-23T12:30:13.747Z,41.97
2023-07-23T12:31:13.913Z,41.98
2023-07-23T12:32:13.897Z,42.62
2023-07-23T12:33:13.729Z,41.45
2023-07-23T12:34:13.725Z,42.35
2023-07-23T12:35:13.725Z,41.61
2023-07-23T12:36:13.733Z,40.48
2023-07-23T12:37:13.694Z,37.41
2023-07-23T12:38:13.697Z,39.69
2023-07-23T12:39:13.690Z,39.17